createdAt,value
2022-12-18T00:00:45.464Z,88.04
2022-12-18T00:06:10.022Z,88.24
2022-12-18T00:11:20.660Z,87.85
2022-12-18T00:16:27.351Z,87.50
2022-12-18T00:21:32.380Z,87.25
2022-12-18T00:26:37.727Z,87.04
2022-12-18T00:31:43.364Z,87.14
2022-12-18T00:36:49.279Z,87.15
2022-12-18T00:42:11.246Z,87.37
2022-12-18T00:47:14.440Z,87.82
2022-12-18T00:52:17.551Z,87.95
2022-12-18T00:57:20.757Z,87.67
2022-12-18T01:02:24.045Z,87.48
2022-12-18T01:07:27.374Z,87.50
2022-12-18T01:12:30.796Z,87.47
2022-12-18T01:17:34.922Z,87.14
2022-12-18T01:22:38.330Z,87.32
2022-12-18T01:27:41.547Z,87.57
2022-12-18T01:32:44.748Z,87.75
2022-12-18T01:37:48.083Z,87.74
2022-12-18T01:42:55.054Z,87.63
2022-12-18T01:48:09.995Z,87.70
2022-12-18T01:53:24.531Z,87.79
2022-12-18T01:59:01.219Z,87.63
2022-12-18T02:04:36.792Z,87.61
2022-12-18T02:09:56.377Z,87.49
2022-12-18T02:15:17.790Z,87.64
2022-12-18T02:20:43.332Z,88.03
2022-12-18T02:26:15.321Z,88.08
2022-12-18T02:31:28.400Z,87.96
2022-12-18T02:36:35.003Z,87.88
2022-12-18T02:41:39.661Z,87.76
2022-12-18T02:46:49.959Z,87.46
2022-12-18T02:52:14.266Z,87.00
2022-12-18T02:57:17.412Z,86.61
2022-12-18T03:02:57.620Z,86.19
2022-12-18T03:08:09.473Z,86.09
2022-12-18T03:13:25.774Z,85.88
2022-12-18T03:18:43.930Z,85.82
2022-12-18T03:23:52.726Z,86.11
2022-12-18T03:29:05.915Z,86.22
2022-12-18T03:34:22.746Z,86.32
2022-12-18T03:39:26.943Z,85.99
2022-12-18T03:45:09.509Z,85.89
2022-12-18T03:50:37.186Z,85.68
2022-12-18T03:55:42.174Z,85.50
2022-12-18T04:00:46.168Z,85.33
2022-12-18T04:05:53.625Z,85.28
2022-12-18T04:10:56.988Z,85.11
2022-12-18T04:16:00.336Z,85.39
2022-12-18T04:21:04.629Z,85.53
2022-12-18T04:26:07.840Z,85.63
2022-12-18T04:31:11.186Z,85.75
2022-12-18T04:36:14.582Z,85.90
2022-12-18T04:41:17.775Z,85.93
2022-12-18T04:46:20.828Z,86.13
2022-12-18T04:51:26.677Z,86.31
2022-12-18T04:56:33.038Z,86.11
2022-12-18T05:01:36.205Z,85.76
2022-12-18T05:06:39.550Z,86.28
2022-12-18T05:11:42.657Z,86.84
2022-12-18T05:16:45.762Z,87.16
2022-12-18T05:21:48.973Z,87.34
2022-12-18T05:26:52.278Z,87.42
2022-12-18T05:31:55.372Z,87.41
2022-12-18T05:36:58.494Z,87.33
2022-12-18T05:42:01.610Z,87.37
2022-12-18T05:47:05.408Z,87.48
2022-12-18T05:52:08.839Z,87.65
2022-12-18T05:57:11.967Z,87.86
2022-12-18T06:02:15.346Z,87.90
2022-12-18T06:07:18.769Z,87.89
2022-12-18T06:12:22.392Z,88.09
2022-12-18T06:17:30.774Z,87.99
2022-12-18T06:22:34.040Z,87.88
2022-12-18T06:27:37.239Z,87.86
2022-12-18T06:32:40.447Z,88.05
2022-12-18T06:37:43.551Z,88.32
2022-12-18T06:42:46.787Z,88.13
2022-12-18T06:47:49.975Z,87.99
2022-12-18T06:52:53.082Z,87.65
2022-12-18T06:57:56.175Z,87.37
2022-12-18T07:02:59.358Z,87.13
2022-12-18T07:08:02.601Z,86.87
2022-12-18T07:13:05.700Z,85.96
2022-12-18T07:18:08.830Z,85.44
2022-12-18T07:23:12.014Z,85.29
2022-12-18T07:28:17.668Z,84.96
2022-12-18T07:33:21.095Z,84.61
2022-12-18T07:38:24.123Z,83.95
2022-12-18T07:43:27.206Z,84.33
2022-12-18T07:48:30.759Z,84.33
2022-12-18T07:53:36.423Z,84.89
2022-12-18T07:58:40.107Z,85.93
2022-12-18T08:03:43.345Z,86.43
2022-12-18T08:08:46.544Z,86.89
2022-12-18T08:13:50.260Z,86.74
2022-12-18T08:18:55.197Z,86.54
2022-12-18T08:24:01.746Z,86.28
2022-12-18T08:29:04.894Z,86.07
2022-12-18T08:34:09.849Z,85.82
2022-12-18T08:39:13.265Z,85.71
2022-12-18T08:44:35.204Z,85.74
2022-12-18T08:49:38.406Z,85.54
2022-12-18T08:54:41.924Z,85.28
2022-12-18T08:59:45.064Z,84.99
2022-12-18T09:04:55.403Z,84.71
2022-12-18T09:10:00.354Z,84.64
2022-12-18T09:15:04.437Z,84.12
2022-12-18T09:20:10.022Z,84.29
2022-12-18T09:25:13.171Z,83.96
2022-12-18T09:30:16.474Z,83.95
2022-12-18T09:35:19.580Z,84.08
2022-12-18T09:40:30.159Z,84.21
2022-12-18T09:45:51.257Z,84.18
2022-12-18T09:51:02.278Z,83.89
2022-12-18T09:56:07.638Z,83.60
2022-12-18T10:01:19.449Z,83.39
2022-12-18T10:06:44.158Z,83.13
2022-12-18T10:12:27.974Z,82.97
2022-12-18T10:17:52.638Z,82.37
2022-12-18T10:23:04.719Z,82.47
2022-12-18T10:28:17.667Z,82.84
2022-12-18T10:33:26.021Z,82.14
2022-12-18T10:38:33.035Z,82.21
2022-12-18T10:43:38.405Z,82.02
2022-12-18T10:48:48.585Z,82.28
2022-12-18T10:54:04.363Z,82.46
2022-12-18T10:59:14.336Z,82.31
2022-12-18T11:04:24.509Z,82.17
2022-12-18T11:09:32.888Z,81.97
2022-12-18T11:14:51.146Z,81.94
2022-12-18T11:20:00.530Z,81.70
2022-12-18T11:25:34.908Z,81.46
2022-12-18T11:30:39.103Z,81.72
2022-12-18T11:35:54.085Z,81.74
2022-12-18T11:41:12.344Z,81.79
2022-12-18T11:46:27.891Z,81.61
2022-12-18T11:51:53.273Z,81.54
2022-12-18T11:57:36.109Z,81.60
2022-12-18T12:03:23.870Z,81.57
2022-12-18T12:09:01.278Z,81.50
2022-12-18T12:14:28.982Z,81.73
2022-12-18T12:19:53.495Z,81.76
2022-12-18T12:25:36.711Z,81.71
2022-12-18T12:30:48.721Z,81.51
2022-12-18T12:36:23.471Z,81.64
2022-12-18T12:41:51.898Z,81.76
2022-12-18T12:47:06.033Z,81.92
2022-12-18T12:52:18.623Z,82.10
2022-12-18T12:58:06.729Z,81.93
2022-12-18T13:03:53.552Z,81.90
2022-12-18T13:09:01.443Z,82.18
2022-12-18T13:14:04.595Z,82.27
2022-12-18T13:19:26.490Z,82.29
2022-12-18T13:24:33.630Z,82.23
2022-12-18T13:29:46.486Z,82.43
2022-12-18T13:35:19.922Z,82.53
2022-12-18T13:40:46.284Z,82.39
2022-12-18T13:46:03.265Z,82.50
2022-12-18T13:51:17.736Z,82.64
2022-12-18T13:56:48.455Z,82.85
2022-12-18T14:02:01.987Z,83.16
2022-12-18T14:07:18.010Z,83.25
2022-12-18T14:12:52.529Z,83.57
2022-12-18T14:18:04.579Z,84.10
2022-12-18T14:23:38.391Z,84.54
2022-12-18T14:28:45.738Z,84.81
2022-12-18T14:33:49.148Z,84.96
2022-12-18T14:38:58.227Z,85.23
2022-12-18T14:44:12.459Z,85.39
2022-12-18T14:49:32.042Z,85.49
2022-12-18T14:54:38.640Z,85.74
2022-12-18T14:59:41.965Z,85.88
2022-12-18T15:04:46.396Z,85.86
2022-12-18T15:10:24.926Z,85.68
2022-12-18T15:15:34.388Z,85.65
2022-12-18T15:20:43.838Z,85.72
2022-12-18T15:25:49.734Z,85.92
2022-12-18T15:31:10.950Z,85.92
2022-12-18T15:36:17.594Z,86.04
2022-12-18T15:41:25.959Z,86.17
2022-12-18T15:46:29.172Z,86.21
2022-12-18T15:51:38.603Z,86.25
2022-12-18T15:57:00.288Z,86.05
2022-12-18T16:02:03.564Z,85.83
2022-12-18T16:07:17.579Z,85.76
2022-12-18T16:12:26.868Z,85.82
2022-12-18T16:17:32.990Z,86.00
2022-12-18T16:22:36.480Z,86.03
2022-12-18T16:27:39.789Z,86.17
2022-12-18T16:32:44.399Z,86.11
2022-12-18T16:37:48.049Z,86.01
2022-12-18T16:42:51.283Z,85.91
2022-12-18T16:47:54.399Z,85.86
2022-12-18T16:52:57.668Z,85.88
2022-12-18T16:58:01.117Z,85.93
2022-12-18T17:03:04.559Z,86.05
2022-12-18T17:08:08.034Z,86.13
2022-12-18T17:13:11.329Z,86.16
2022-12-18T17:18:14.539Z,86.17
2022-12-18T17:23:17.745Z,85.96
2022-12-18T17:28:22.226Z,85.74
2022-12-18T17:33:26.004Z,85.85
2022-12-18T17:38:29.143Z,86.11
2022-12-18T17:43:36.121Z,86.29
2022-12-18T17:48:40.417Z,86.24
2022-12-18T17:53:44.317Z,86.05
2022-12-18T17:58:50.551Z,85.99
2022-12-18T18:03:57.929Z,86.01
2022-12-18T18:09:01.264Z,85.79
2022-12-18T18:14:19.843Z,85.75
2022-12-18T18:19:25.506Z,85.79
2022-12-18T18:24:28.727Z,85.82
2022-12-18T18:29:32.026Z,85.69
2022-12-18T18:34:35.871Z,85.52
2022-12-18T18:39:47.023Z,85.03
2022-12-18T18:44:50.246Z,84.81
2022-12-18T18:49:53.460Z,84.35
2022-12-18T18:55:12.189Z,83.94
2022-12-18T19:00:17.474Z,83.52
2022-12-18T19:05:20.594Z,83.13
2022-12-18T19:10:23.935Z,82.40
2022-12-18T19:15:27.012Z,81.96
2022-12-18T19:20:30.528Z,81.79
2022-12-18T19:25:41.628Z,81.85
2022-12-18T19:30:45.858Z,81.71
2022-12-18T19:35:49.165Z,81.90
2022-12-18T19:40:52.779Z,81.57
2022-12-18T19:45:56.489Z,81.53
2022-12-18T19:51:24.900Z,81.79
2022-12-18T19:56:35.511Z,81.88
2022-12-18T20:01:38.771Z,81.51
2022-12-18T20:06:53.505Z,81.25
2022-12-18T20:11:56.784Z,81.32
2022-12-18T20:17:00.591Z,81.68
2022-12-18T20:22:04.085Z,81.99
2022-12-18T20:27:14.049Z,82.03
2022-12-18T20:32:19.469Z,82.24
2022-12-18T20:37:23.064Z,82.44
2022-12-18T20:42:27.329Z,82.24
2022-12-18T20:47:30.506Z,82.66
2022-12-18T20:52:34.124Z,82.34
2022-12-18T20:57:39.285Z,82.01
2022-12-18T21:02:42.606Z,81.68
2022-12-18T21:07:46.240Z,80.92
2022-12-18T21:12:58.719Z,81.28
2022-12-18T21:18:05.123Z,81.44
2022-12-18T21:23:16.440Z,80.68
2022-12-18T21:28:20.543Z,80.36
2022-12-18T21:33:23.954Z,80.82
2022-12-18T21:38:28.700Z,80.96
2022-12-18T21:44:04.373Z,81.31
2022-12-18T21:49:09.847Z,81.33
2022-12-18T21:54:13.047Z,81.71
2022-12-18T21:59:25.874Z,82.35
2022-12-18T22:04:30.054Z,82.95
2022-12-18T22:09:34.517Z,82.79
2022-12-18T22:14:37.882Z,82.76
2022-12-18T22:19:43.139Z,82.43
2022-12-18T22:24:46.627Z,82.03
2022-12-18T22:30:05.217Z,81.77
2022-12-18T22:35:15.408Z,81.88
2022-12-18T22:40:25.334Z,82.26
2022-12-18T22:45:29.056Z,82.61
2022-12-18T22:50:33.905Z,82.61
2022-12-18T22:55:37.111Z,82.62
2022-12-18T23:00:40.942Z,82.61
2022-12-18T23:05:44.159Z,82.43
2022-12-18T23:10:47.348Z,82.24
2022-12-18T23:15:50.498Z,81.86
2022-12-18T23:20:53.667Z,81.30
2022-12-18T23:26:08.113Z,81.03
2022-12-18T23:31:24.344Z,81.13
2022-12-18T23:36:28.996Z,81.45
2022-12-18T23:41:34.259Z,81.76
2022-12-18T23:46:37.980Z,81.42
2022-12-18T23:51:41.179Z,81.57
2022-12-18T23:56:46.340Z,82.00
